createdAt,value
2024-03-07T00:00:35.078Z,100.00
2024-03-07T00:03:02.609Z,100.00
2024-03-07T00:05:29.538Z,100.00
2024-03-07T00:07:56.417Z,100.00
2024-03-07T00:10:24.579Z,100.00
2024-03-07T00:12:51.512Z,100.00
2024-03-07T00:15:19.307Z,100.00
2024-03-07T00:17:46.403Z,100.00
2024-03-07T00:20:17.008Z,100.00
2024-03-07T00:22:44.769Z,100.00
2024-03-07T00:25:12.641Z,100.00
2024-03-07T00:27:39.599Z,100.00
2024-03-07T00:30:10.022Z,100.00
2024-03-07T00:32:40.731Z,100.00
2024-03-07T00:35:10.324Z,100.00
2024-03-07T00:37:37.742Z,100.00
2024-03-07T00:40:05.389Z,100.00
2024-03-07T00:42:32.204Z,100.00
2024-03-07T00:44:59.339Z,100.00
2024-03-07T00:47:26.264Z,100.00
2024-03-07T00:49:53.174Z,100.00
2024-03-07T00:52:19.956Z,100.00
2024-03-07T00:54:46.772Z,100.00
2024-03-07T00:57:53.810Z,100.00
2024-03-07T01:00:22.762Z,100.00
2024-03-07T01:02:50.150Z,100.00
2024-03-07T01:05:19.005Z,100.00
2024-03-07T01:07:47.514Z,100.00
2024-03-07T01:10:15.522Z,100.00
2024-03-07T01:12:44.772Z,100.00
2024-03-07T01:15:13.035Z,100.00
2024-03-07T01:17:40.064Z,100.00
2024-03-07T01:20:07.903Z,100.00
2024-03-07T01:22:34.766Z,100.00
2024-03-07T01:25:01.560Z,100.00
2024-03-07T01:27:28.607Z,100.00
2024-03-07T01:29:55.424Z,100.00
2024-03-07T01:32:22.753Z,100.00
2024-03-07T01:34:49.661Z,100.00
2024-03-07T01:37:16.465Z,100.00
2024-03-07T01:39:43.398Z,100.00
2024-03-07T01:42:10.535Z,100.00
2024-03-07T01:44:37.526Z,100.00
2024-03-07T01:47:04.401Z,100.00
2024-03-07T01:49:32.213Z,100.00
2024-03-07T01:51:59.621Z,100.00
2024-03-07T01:54:27.528Z,100.00
2024-03-07T01:56:54.582Z,100.00
2024-03-07T01:59:25.242Z,100.00
2024-03-07T02:01:52.392Z,100.00
2024-03-07T02:04:19.202Z,100.00
2024-03-07T02:06:46.299Z,100.00
2024-03-07T02:09:13.070Z,100.00
2024-03-07T02:11:39.902Z,100.00
2024-03-07T02:14:06.719Z,100.00
2024-03-07T02:16:33.490Z,100.00
2024-03-07T02:19:03.054Z,100.00
2024-03-07T02:21:29.918Z,100.00
2024-03-07T02:23:57.325Z,100.00
2024-03-07T02:26:24.216Z,100.00
2024-03-07T02:28:51.117Z,100.00
2024-03-07T02:31:18.086Z,100.00
2024-03-07T02:33:45.034Z,100.00
2024-03-07T02:36:11.826Z,100.00
2024-03-07T02:38:38.722Z,100.00
2024-03-07T02:41:05.614Z,100.00
2024-03-07T02:43:32.411Z,100.00
2024-03-07T02:45:59.172Z,100.00
2024-03-07T02:48:26.062Z,100.00
2024-03-07T02:50:53.122Z,100.00
2024-03-07T02:53:20.027Z,100.00
2024-03-07T02:55:46.848Z,100.00
2024-03-07T02:58:13.704Z,100.00
2024-03-07T03:00:40.513Z,100.00
2024-03-07T03:03:07.442Z,100.00
2024-03-07T03:05:34.292Z,100.00
2024-03-07T03:08:01.632Z,100.00
2024-03-07T03:10:30.900Z,100.00
2024-03-07T03:13:02.749Z,100.00
2024-03-07T03:15:30.873Z,100.00
2024-03-07T03:18:01.178Z,100.00
2024-03-07T03:20:35.988Z,100.00
2024-03-07T03:23:15.387Z,100.00
2024-03-07T03:25:48.778Z,100.00
2024-03-07T03:28:15.553Z,100.00
2024-03-07T03:30:43.093Z,100.00
2024-03-07T03:33:11.232Z,100.00
2024-03-07T03:35:39.403Z,100.00
2024-03-07T03:38:06.955Z,100.00
2024-03-07T03:40:34.184Z,100.00
2024-03-07T03:43:01.883Z,100.00
2024-03-07T03:45:28.985Z,100.00
2024-03-07T03:47:56.327Z,100.00
2024-03-07T03:50:26.246Z,100.00
2024-03-07T03:52:53.718Z,100.00
2024-03-07T03:55:22.371Z,100.00
2024-03-07T03:57:50.593Z,100.00
2024-03-07T04:00:18.212Z,100.00
2024-03-07T04:02:49.735Z,100.00
2024-03-07T04:05:18.730Z,100.00
2024-03-07T04:07:46.068Z,100.00
2024-03-07T04:10:13.802Z,100.00
2024-03-07T04:12:41.700Z,100.00
2024-03-07T04:15:13.534Z,100.00
2024-03-07T04:17:40.655Z,100.00
2024-03-07T04:20:08.701Z,100.00
2024-03-07T04:22:35.999Z,100.00
2024-03-07T04:25:03.655Z,100.00
2024-03-07T04:27:30.607Z,100.00
2024-03-07T04:29:57.671Z,100.00
2024-03-07T04:32:24.875Z,100.00
2024-03-07T04:34:51.767Z,100.00
2024-03-07T04:37:18.557Z,100.00
2024-03-07T04:39:45.447Z,100.00
2024-03-07T04:42:12.317Z,100.00
2024-03-07T04:44:40.534Z,100.00
2024-03-07T04:47:07.756Z,100.00
2024-03-07T04:49:35.108Z,100.00
2024-03-07T04:52:04.534Z,100.00
2024-03-07T04:54:33.297Z,100.00
2024-03-07T04:57:00.388Z,100.00
2024-03-07T04:59:27.469Z,100.00
2024-03-07T05:01:54.330Z,100.00
2024-03-07T05:04:21.101Z,100.00
2024-03-07T05:06:50.757Z,100.00
2024-03-07T05:09:24.440Z,100.00
2024-03-07T05:11:54.647Z,100.00
2024-03-07T05:14:23.132Z,100.00
2024-03-07T05:17:10.042Z,100.00
2024-03-07T05:19:39.484Z,100.00
2024-03-07T05:22:06.444Z,100.00
2024-03-07T05:24:35.513Z,100.00
2024-03-07T05:27:02.722Z,100.00
2024-03-07T05:29:29.759Z,100.00
2024-03-07T05:31:56.741Z,100.00
2024-03-07T05:34:25.037Z,100.00
2024-03-07T05:36:52.407Z,100.00
2024-03-07T05:39:19.785Z,100.00
2024-03-07T05:41:47.384Z,100.00
2024-03-07T05:44:14.615Z,100.00
2024-03-07T05:46:43.305Z,100.00
2024-03-07T05:49:10.093Z,100.00
2024-03-07T05:51:37.434Z,100.00
2024-03-07T05:54:08.161Z,100.00
2024-03-07T05:56:38.196Z,100.00
2024-03-07T05:59:11.171Z,100.00
2024-03-07T06:01:38.337Z,100.00
2024-03-07T06:04:09.684Z,100.00
2024-03-07T06:06:37.281Z,100.00
2024-03-07T06:09:09.268Z,100.00
2024-03-07T06:11:40.142Z,100.00
2024-03-07T06:14:07.881Z,100.00
2024-03-07T06:16:39.632Z,100.00
2024-03-07T06:19:11.892Z,100.00
2024-03-07T06:21:42.287Z,100.00
2024-03-07T06:24:11.726Z,100.00
2024-03-07T06:26:45.536Z,100.00
2024-03-07T06:29:17.648Z,100.00
2024-03-07T06:31:47.821Z,100.00
2024-03-07T06:34:15.052Z,100.00
2024-03-07T06:36:41.912Z,100.00
2024-03-07T06:39:11.710Z,100.00
2024-03-07T06:41:39.402Z,100.00
2024-03-07T06:44:06.753Z,100.00
2024-03-07T06:46:35.085Z,100.00
2024-03-07T06:49:02.475Z,100.00
2024-03-07T06:51:29.870Z,100.00
2024-03-07T06:53:57.798Z,100.00
2024-03-07T06:56:26.219Z,100.00
2024-03-07T06:58:53.356Z,100.00
2024-03-07T07:01:21.313Z,100.00
2024-03-07T07:03:51.505Z,100.00
2024-03-07T07:06:18.397Z,100.00
2024-03-07T07:08:46.635Z,100.00
2024-03-07T07:11:14.404Z,100.00
2024-03-07T07:13:43.464Z,100.00
2024-03-07T07:16:11.295Z,100.00
2024-03-07T07:18:39.767Z,100.00
2024-03-07T07:21:07.547Z,100.00
2024-03-07T07:23:34.455Z,100.00
2024-03-07T07:26:01.278Z,100.00
2024-03-07T07:28:28.264Z,100.00
2024-03-07T07:30:55.078Z,100.00
2024-03-07T07:33:22.100Z,100.00
2024-03-07T07:35:49.050Z,100.00
2024-03-07T07:38:16.683Z,100.00
2024-03-07T07:40:44.433Z,100.00
2024-03-07T07:43:21.853Z,100.00
2024-03-07T07:45:53.188Z,100.00
2024-03-07T07:48:21.078Z,100.00
2024-03-07T07:50:50.524Z,100.00
2024-03-07T07:53:17.842Z,100.00
2024-03-07T07:55:44.695Z,100.00
2024-03-07T07:58:11.512Z,100.00
2024-03-07T08:00:38.611Z,100.00
2024-03-07T08:03:10.633Z,100.00
2024-03-07T08:05:39.025Z,100.00
2024-03-07T08:08:08.178Z,100.00
2024-03-07T08:10:36.749Z,100.00
2024-03-07T08:13:04.988Z,100.00
2024-03-07T08:15:32.425Z,100.00
2024-03-07T08:18:01.169Z,100.00
2024-03-07T08:20:29.089Z,100.00
2024-03-07T08:22:57.231Z,100.00
2024-03-07T08:25:26.031Z,100.00
2024-03-07T08:27:55.446Z,100.00
2024-03-07T08:30:22.572Z,100.00
2024-03-07T08:32:55.776Z,100.00
2024-03-07T08:35:23.585Z,100.00
2024-03-07T08:37:55.988Z,100.00
2024-03-07T08:40:28.397Z,100.00
2024-03-07T08:42:57.434Z,100.00
2024-03-07T08:45:25.113Z,100.00
2024-03-07T08:47:53.723Z,100.00
2024-03-07T08:50:21.068Z,100.00
2024-03-07T08:52:49.485Z,100.00
2024-03-07T08:55:19.347Z,100.00
2024-03-07T08:57:47.398Z,100.00
2024-03-07T09:00:24.050Z,100.00
2024-03-07T09:02:55.998Z,100.00
2024-03-07T09:05:24.491Z,100.00
2024-03-07T09:07:52.440Z,100.00
2024-03-07T09:10:19.723Z,100.00
2024-03-07T09:12:47.341Z,100.00
2024-03-07T09:15:14.572Z,100.00
2024-03-07T09:17:41.573Z,100.00
2024-03-07T09:20:15.921Z,100.00
2024-03-07T09:22:46.396Z,100.00
2024-03-07T09:25:18.036Z,100.00
2024-03-07T09:27:45.128Z,100.00
2024-03-07T09:30:20.380Z,100.00
2024-03-07T09:32:47.443Z,100.00
2024-03-07T09:35:15.472Z,100.00
2024-03-07T09:37:43.981Z,100.00
2024-03-07T09:40:15.299Z,100.00
2024-03-07T09:42:47.326Z,100.00
2024-03-07T09:45:24.493Z,100.00
2024-03-07T09:47:53.786Z,100.00
2024-03-07T09:50:25.639Z,100.00
2024-03-07T09:52:55.986Z,100.00
2024-03-07T09:55:26.759Z,100.00
2024-03-07T09:57:57.794Z,100.00
2024-03-07T10:00:28.160Z,100.00
2024-03-07T10:03:17.057Z,100.00
2024-03-07T10:05:44.170Z,100.00
2024-03-07T10:08:12.170Z,100.00
2024-03-07T10:10:39.025Z,100.00
2024-03-07T10:13:07.033Z,100.00
2024-03-07T10:15:36.985Z,100.00
2024-03-07T10:18:04.452Z,100.00
2024-03-07T10:20:31.748Z,100.00
2024-03-07T10:22:58.943Z,100.00
2024-03-07T10:25:27.840Z,100.00
2024-03-07T10:27:58.964Z,100.00
2024-03-07T10:30:26.885Z,100.00
2024-03-07T10:32:58.977Z,100.00
2024-03-07T10:35:26.775Z,100.00
2024-03-07T10:37:55.273Z,100.00
2024-03-07T10:40:23.849Z,100.00
2024-03-07T10:42:53.895Z,100.00
2024-03-07T10:45:22.878Z,100.00
2024-03-07T10:47:58.704Z,100.00
2024-03-07T10:50:48.822Z,100.00
2024-03-07T10:53:42.431Z,100.00
2024-03-07T10:56:31.283Z,99.45
2024-03-07T10:59:08.657Z,99.57
2024-03-07T11:01:36.777Z,100.00
2024-03-07T11:04:07.379Z,100.00
2024-03-07T11:06:38.668Z,99.50
2024-03-07T11:09:12.172Z,100.00
2024-03-07T11:11:41.771Z,100.00
2024-03-07T11:14:12.289Z,100.00
2024-03-07T11:16:43.108Z,100.00
2024-03-07T11:19:43.561Z,100.00
2024-03-07T11:22:19.399Z,100.00
2024-03-07T11:25:01.719Z,99.40
2024-03-07T11:27:28.585Z,99.70
2024-03-07T11:29:56.048Z,99.46
2024-03-07T11:32:24.641Z,99.89
2024-03-07T11:34:55.013Z,98.52
2024-03-07T11:37:42.381Z,98.05
2024-03-07T11:40:09.978Z,98.67
2024-03-07T11:42:37.973Z,97.83
2024-03-07T11:45:05.756Z,97.21
2024-03-07T11:47:40.590Z,96.85
2024-03-07T11:50:21.109Z,97.12
2024-03-07T11:52:48.009Z,97.73
